sensor_id;sensor_type;location;lat;lon;timestamp;temperature;humidity
77277;DHT22;66330;52.166;9.978;2023-04-01T00:00:45;11.70;78.30
77277;DHT22;66330;52.166;9.978;2023-04-01T00:03:11;11.70;78.20
77277;DHT22;66330;52.166;9.978;2023-04-01T00:05:37;11.70;78.10
77277;DHT22;66330;52.166;9.978;2023-04-01T00:08:02;11.70;77.90
77277;DHT22;66330;52.166;9.978;2023-04-01T00:10:28;11.60;77.70
77277;DHT22;66330;52.166;9.978;2023-04-01T00:12:53;11.70;77.60
77277;DHT22;66330;52.166;9.978;2023-04-01T00:15:19;11.50;77.20
77277;DHT22;66330;52.166;9.978;2023-04-01T00:17:45;12.00;77.40
77277;DHT22;66330;52.166;9.978;2023-04-01T00:20:11;11.80;76.30
77277;DHT22;66330;52.166;9.978;2023-04-01T00:22:37;11.80;76.90
77277;DHT22;66330;52.166;9.978;2023-04-01T00:25:04;11.80;76.70
77277;DHT22;66330;52.166;9.978;2023-04-01T00:27:30;11.80;76.40
77277;DHT22;66330;52.166;9.978;2023-04-01T00:29:55;11.90;75.80
77277;DHT22;66330;52.166;9.978;2023-04-01T00:32:21;11.90;75.70
77277;DHT22;66330;52.166;9.978;2023-04-01T00:34:50;11.90;75.70
77277;DHT22;66330;52.166;9.978;2023-04-01T00:37:17;11.90;76.00
77277;DHT22;66330;52.166;9.978;2023-04-01T00:39:42;11.90;76.00
77277;DHT22;66330;52.166;9.978;2023-04-01T00:42:08;11.90;75.80
77277;DHT22;66330;52.166;9.978;2023-04-01T00:44:36;12.00;75.60
77277;DHT22;66330;52.166;9.978;2023-04-01T00:47:02;12.00;75.40
77277;DHT22;66330;52.166;9.978;2023-04-01T00:49:34;12.00;75.30
77277;DHT22;66330;52.166;9.978;2023-04-01T00:52:03;12.00;75.00
77277;DHT22;66330;52.166;9.978;2023-04-01T00:54:31;12.00;74.50
77277;DHT22;66330;52.166;9.978;2023-04-01T00:57:12;12.00;74.70
77277;DHT22;66330;52.166;9.978;2023-04-01T00:59:47;12.00;74.60
77277;DHT22;66330;52.166;9.978;2023-04-01T01:02:15;12.00;73.90
77277;DHT22;66330;52.166;9.978;2023-04-01T01:04:41;12.00;73.80
77277;DHT22;66330;52.166;9.978;2023-04-01T01:10:23;12.00;74.30
77277;DHT22;66330;52.166;9.978;2023-04-01T01:13:11;12.00;74.20
77277;DHT22;66330;52.166;9.978;2023-04-01T01:16:03;12.00;74.30
77277;DHT22;66330;52.166;9.978;2023-04-01T01:18:35;11.90;74.30
77277;DHT22;66330;52.166;9.978;2023-04-01T01:24:54;11.80;74.70
77277;DHT22;66330;52.166;9.978;2023-04-01T01:27:22;11.60;74.90
77277;DHT22;66330;52.166;9.978;2023-04-01T01:30:02;11.60;75.40
77277;DHT22;66330;52.166;9.978;2023-04-01T01:32:51;11.50;75.20
77277;DHT22;66330;52.166;9.978;2023-04-01T01:35:28;11.50;76.00
77277;DHT22;66330;52.166;9.978;2023-04-01T01:38:02;11.40;76.10
77277;DHT22;66330;52.166;9.978;2023-04-01T01:40:29;11.40;76.30
77277;DHT22;66330;52.166;9.978;2023-04-01T01:42:59;11.30;76.20
77277;DHT22;66330;52.166;9.978;2023-04-01T01:45:26;11.30;76.50
77277;DHT22;66330;52.166;9.978;2023-04-01T01:47:53;11.70;77.10
77277;DHT22;66330;52.166;9.978;2023-04-01T01:50:21;11.30;76.90
77277;DHT22;66330;52.166;9.978;2023-04-01T01:52:48;11.30;77.10
77277;DHT22;66330;52.166;9.978;2023-04-01T01:55:32;11.30;77.20
77277;DHT22;66330;52.166;9.978;2023-04-01T01:58:02;11.20;77.20
77277;DHT22;66330;52.166;9.978;2023-04-01T02:00:30;11.30;77.40
77277;DHT22;66330;52.166;9.978;2023-04-01T02:03:36;11.20;77.10
77277;DHT22;66330;52.166;9.978;2023-04-01T02:06:05;11.20;76.60
77277;DHT22;66330;52.166;9.978;2023-04-01T02:08:36;11.30;77.00
77277;DHT22;66330;52.166;9.978;2023-04-01T02:11:09;11.30;76.90
77277;DHT22;66330;52.166;9.978;2023-04-01T02:16:47;11.00;77.10
77277;DHT22;66330;52.166;9.978;2023-04-01T02:19:16;11.30;77.40
77277;DHT22;66330;52.166;9.978;2023-04-01T02:21:51;11.30;77.30
77277;DHT22;66330;52.166;9.978;2023-04-01T02:24:19;11.40;77.20
77277;DHT22;66330;52.166;9.978;2023-04-01T02:26:48;11.40;77.30
77277;DHT22;66330;52.166;9.978;2023-04-01T02:29:16;11.40;76.80
77277;DHT22;66330;52.166;9.978;2023-04-01T02:31:44;11.40;77.20
77277;DHT22;66330;52.166;9.978;2023-04-01T02:34:09;11.50;77.10
77277;DHT22;66330;52.166;9.978;2023-04-01T02:36:36;11.20;76.80
77277;DHT22;66330;52.166;9.978;2023-04-01T02:39:02;11.50;76.60
77277;DHT22;66330;52.166;9.978;2023-04-01T02:41:29;11.50;77.20
77277;DHT22;66330;52.166;9.978;2023-04-01T02:43:56;11.50;77.30
77277;DHT22;66330;52.166;9.978;2023-04-01T02:46:24;11.40;77.00
77277;DHT22;66330;52.166;9.978;2023-04-01T02:48:49;11.40;76.70
77277;DHT22;66330;52.166;9.978;2023-04-01T02:51:15;11.40;77.70
77277;DHT22;66330;52.166;9.978;2023-04-01T02:53:41;11.30;77.10
77277;DHT22;66330;52.166;9.978;2023-04-01T02:56:06;11.30;77.60
77277;DHT22;66330;52.166;9.978;2023-04-01T02:58:32;11.30;77.90
77277;DHT22;66330;52.166;9.978;2023-04-01T03:00:57;11.20;77.90
77277;DHT22;66330;52.166;9.978;2023-04-01T03:03:23;11.30;78.40
77277;DHT22;66330;52.166;9.978;2023-04-01T03:05:48;11.30;78.30
77277;DHT22;66330;52.166;9.978;2023-04-01T03:08:14;11.20;78.20
77277;DHT22;66330;52.166;9.978;2023-04-01T03:10:39;11.60;78.80
77277;DHT22;66330;52.166;9.978;2023-04-01T03:13:05;11.20;78.30
77277;DHT22;66330;52.166;9.978;2023-04-01T03:15:31;11.70;78.90
77277;DHT22;66330;52.166;9.978;2023-04-01T03:17:57;11.80;79.00
77277;DHT22;66330;52.166;9.978;2023-04-01T03:20:22;11.30;78.40
77277;DHT22;66330;52.166;9.978;2023-04-01T03:22:48;11.30;78.40
77277;DHT22;66330;52.166;9.978;2023-04-01T03:25:14;11.30;78.50
77277;DHT22;66330;52.166;9.978;2023-04-01T03:27:39;11.30;78.50
77277;DHT22;66330;52.166;9.978;2023-04-01T03:30:06;11.30;78.50
77277;DHT22;66330;52.166;9.978;2023-04-01T03:32:32;11.30;77.90
77277;DHT22;66330;52.166;9.978;2023-04-01T03:34:58;11.30;78.20
77277;DHT22;66330;52.166;9.978;2023-04-01T03:37:24;11.80;78.70
77277;DHT22;66330;52.166;9.978;2023-04-01T03:39:50;11.30;78.60
77277;DHT22;66330;52.166;9.978;2023-04-01T03:42:16;11.30;78.60
77277;DHT22;66330;52.166;9.978;2023-04-01T03:44:41;11.30;78.60
77277;DHT22;66330;52.166;9.978;2023-04-01T03:47:07;11.20;78.10
77277;DHT22;66330;52.166;9.978;2023-04-01T03:49:34;11.30;77.90
77277;DHT22;66330;52.166;9.978;2023-04-01T03:52:00;11.30;77.50
77277;DHT22;66330;52.166;9.978;2023-04-01T03:54:25;11.30;78.10
77277;DHT22;66330;52.166;9.978;2023-04-01T03:56:51;11.30;78.00
77277;DHT22;66330;52.166;9.978;2023-04-01T03:59:16;11.40;78.40
77277;DHT22;66330;52.166;9.978;2023-04-01T04:01:42;11.80;78.60
77277;DHT22;66330;52.166;9.978;2023-04-01T04:04:10;11.60;78.50
77277;DHT22;66330;52.166;9.978;2023-04-01T04:06:35;11.40;78.30
77277;DHT22;66330;52.166;9.978;2023-04-01T04:09:01;11.50;78.40
77277;DHT22;66330;52.166;9.978;2023-04-01T04:11:27;11.40;78.30
77277;DHT22;66330;52.166;9.978;2023-04-01T04:13:52;11.50;78.30
77277;DHT22;66330;52.166;9.978;2023-04-01T04:16:18;11.80;78.20
77277;DHT22;66330;52.166;9.978;2023-04-01T04:18:43;11.50;78.10
77277;DHT22;66330;52.166;9.978;2023-04-01T04:21:13;11.50;78.30
77277;DHT22;66330;52.166;9.978;2023-04-01T04:23:39;11.40;77.70
77277;DHT22;66330;52.166;9.978;2023-04-01T04:26:07;11.40;77.60
77277;DHT22;66330;52.166;9.978;2023-04-01T04:28:33;11.40;77.70
77277;DHT22;66330;52.166;9.978;2023-04-01T04:30:59;11.40;78.00
77277;DHT22;66330;52.166;9.978;2023-04-01T04:33:25;11.40;78.30
77277;DHT22;66330;52.166;9.978;2023-04-01T04:35:54;11.40;78.30
77277;DHT22;66330;52.166;9.978;2023-04-01T04:38:20;11.40;78.30
77277;DHT22;66330;52.166;9.978;2023-04-01T04:40:46;11.40;77.50
77277;DHT22;66330;52.166;9.978;2023-04-01T04:43:13;11.30;78.20
77277;DHT22;66330;52.166;9.978;2023-04-01T04:45:39;11.30;78.30
77277;DHT22;66330;52.166;9.978;2023-04-01T04:48:06;11.30;78.60
77277;DHT22;66330;52.166;9.978;2023-04-01T04:50:32;11.20;78.60
77277;DHT22;66330;52.166;9.978;2023-04-01T04:52:58;11.20;78.60
77277;DHT22;66330;52.166;9.978;2023-04-01T04:55:23;11.20;78.90
77277;DHT22;66330;52.166;9.978;2023-04-01T04:57:49;11.10;78.90
77277;DHT22;66330;52.166;9.978;2023-04-01T05:00:14;11.10;78.40
77277;DHT22;66330;52.166;9.978;2023-04-01T05:02:40;11.20;79.50
77277;DHT22;66330;52.166;9.978;2023-04-01T05:05:06;11.10;79.60
77277;DHT22;66330;52.166;9.978;2023-04-01T05:07:33;11.00;79.60
77277;DHT22;66330;52.166;9.978;2023-04-01T05:09:59;11.00;79.80
77277;DHT22;66330;52.166;9.978;2023-04-01T05:12:24;11.00;79.90
77277;DHT22;66330;52.166;9.978;2023-04-01T05:14:50;11.20;80.30
77277;DHT22;66330;52.166;9.978;2023-04-01T05:17:15;10.90;80.10
77277;DHT22;66330;52.166;9.978;2023-04-01T05:19:41;10.90;80.20
77277;DHT22;66330;52.166;9.978;2023-04-01T05:22:06;10.90;80.30
77277;DHT22;66330;52.166;9.978;2023-04-01T05:24:32;10.90;80.00
77277;DHT22;66330;52.166;9.978;2023-04-01T05:26:58;10.90;80.50
77277;DHT22;66330;52.166;9.978;2023-04-01T05:29:25;10.90;80.70
77277;DHT22;66330;52.166;9.978;2023-04-01T05:31:51;10.90;80.80
77277;DHT22;66330;52.166;9.978;2023-04-01T05:34:17;10.90;80.30
77277;DHT22;66330;52.166;9.978;2023-04-01T05:36:43;10.90;80.40
77277;DHT22;66330;52.166;9.978;2023-04-01T05:39:09;10.90;80.50
77277;DHT22;66330;52.166;9.978;2023-04-01T05:41:35;10.90;81.10
77277;DHT22;66330;52.166;9.978;2023-04-01T05:44:02;10.90;81.10
77277;DHT22;66330;52.166;9.978;2023-04-01T05:46:27;10.90;81.10
77277;DHT22;66330;52.166;9.978;2023-04-01T05:48:53;10.90;81.10
77277;DHT22;66330;52.166;9.978;2023-04-01T05:51:18;10.90;80.30
77277;DHT22;66330;52.166;9.978;2023-04-01T05:53:44;11.00;81.20
77277;DHT22;66330;52.166;9.978;2023-04-01T05:56:10;11.00;81.10
77277;DHT22;66330;52.166;9.978;2023-04-01T05:58:37;11.00;80.60
77277;DHT22;66330;52.166;9.978;2023-04-01T06:01:04;11.10;81.20
77277;DHT22;66330;52.166;9.978;2023-04-01T06:03:30;11.10;80.50
77277;DHT22;66330;52.166;9.978;2023-04-01T06:05:56;11.20;81.10
77277;DHT22;66330;52.166;9.978;2023-04-01T06:08:22;11.20;81.00
77277;DHT22;66330;52.166;9.978;2023-04-01T06:22:02;11.40;80.30
77277;DHT22;66330;52.166;9.978;2023-04-01T06:24:35;11.60;80.30
77277;DHT22;66330;52.166;9.978;2023-04-01T06:30:03;11.50;79.50
77277;DHT22;66330;52.166;9.978;2023-04-01T06:44:12;11.80;79.10
77277;DHT22;66330;52.166;9.978;2023-04-01T06:46:48;11.80;79.10
77277;DHT22;66330;52.166;9.978;2023-04-01T06:49:29;11.80;79.10
77277;DHT22;66330;52.166;9.978;2023-04-01T06:52:19;11.80;79.20
77277;DHT22;66330;52.166;9.978;2023-04-01T06:55:23;11.80;78.50
77277;DHT22;66330;52.166;9.978;2023-04-01T06:57:53;11.80;78.80
77277;DHT22;66330;52.166;9.978;2023-04-01T07:00:35;11.80;78.90
77277;DHT22;66330;52.166;9.978;2023-04-01T07:03:14;11.70;79.60
77277;DHT22;66330;52.166;9.978;2023-04-01T07:05:42;11.70;78.90
77277;DHT22;66330;52.166;9.978;2023-04-01T07:08:15;11.70;79.00
77277;DHT22;66330;52.166;9.978;2023-04-01T07:10:58;11.70;78.50
77277;DHT22;66330;52.166;9.978;2023-04-01T07:13:39;11.70;79.50
77277;DHT22;66330;52.166;9.978;2023-04-01T07:24:03;11.60;79.50
77277;DHT22;66330;52.166;9.978;2023-04-01T07:26:29;11.70;80.40
77277;DHT22;66330;52.166;9.978;2023-04-01T07:28:56;11.70;80.30
77277;DHT22;66330;52.166;9.978;2023-04-01T07:39:44;11.80;79.50
77277;DHT22;66330;52.166;9.978;2023-04-01T07:42:27;11.90;80.30
77277;DHT22;66330;52.166;9.978;2023-04-01T07:45:22;12.40;80.40
77277;DHT22;66330;52.166;9.978;2023-04-01T07:50:54;12.10;80.00
77277;DHT22;66330;52.166;9.978;2023-04-01T07:53:25;12.10;79.80
77277;DHT22;66330;52.166;9.978;2023-04-01T07:56:10;12.10;79.90
77277;DHT22;66330;52.166;9.978;2023-04-01T08:02:02;12.70;80.30
77277;DHT22;66330;52.166;9.978;2023-04-01T08:09:50;11.80;77.80
77277;DHT22;66330;52.166;9.978;2023-04-01T08:15:17;11.90;77.80
77277;DHT22;66330;52.166;9.978;2023-04-01T08:18:04;12.90;79.30
77277;DHT22;66330;52.166;9.978;2023-04-01T08:20:38;12.60;78.40
77277;DHT22;66330;52.166;9.978;2023-04-01T08:23:15;12.70;78.40
77277;DHT22;66330;52.166;9.978;2023-04-01T08:25:52;12.80;78.10
77277;DHT22;66330;52.166;9.978;2023-04-01T08:31:11;13.20;77.60
77277;DHT22;66330;52.166;9.978;2023-04-01T08:33:38;13.30;76.70
77277;DHT22;66330;52.166;9.978;2023-04-01T08:38:57;13.50;75.80
77277;DHT22;66330;52.166;9.978;2023-04-01T08:41:49;13.60;75.40
77277;DHT22;66330;52.166;9.978;2023-04-01T08:55:31;13.80;73.40
77277;DHT22;66330;52.166;9.978;2023-04-01T09:01:10;13.90;73.60
77277;DHT22;66330;52.166;9.978;2023-04-01T09:04:00;14.00;73.90
77277;DHT22;66330;52.166;9.978;2023-04-01T09:06:35;14.10;72.90
77277;DHT22;66330;52.166;9.978;2023-04-01T09:11:59;14.30;72.00
77277;DHT22;66330;52.166;9.978;2023-04-01T09:42:08;14.90;69.10
77277;DHT22;66330;52.166;9.978;2023-04-01T09:44:58;15.00;68.60
77277;DHT22;66330;52.166;9.978;2023-04-01T09:47:56;15.30;68.60
77277;DHT22;66330;52.166;9.978;2023-04-01T10:02:09;15.20;65.20
77277;DHT22;66330;52.166;9.978;2023-04-01T10:08:04;14.90;65.60
77277;DHT22;66330;52.166;9.978;2023-04-01T10:10:46;14.80;66.60
77277;DHT22;66330;52.166;9.978;2023-04-01T10:16:10;14.80;66.20
77277;DHT22;66330;52.166;9.978;2023-04-01T10:19:08;14.70;66.60
77277;DHT22;66330;52.166;9.978;2023-04-01T10:22:10;15.00;67.10
77277;DHT22;66330;52.166;9.978;2023-04-01T10:25:05;14.50;67.70
77277;DHT22;66330;52.166;9.978;2023-04-01T10:30:31;14.30;68.40
77277;DHT22;66330;52.166;9.978;2023-04-01T10:36:16;14.20;69.80
77277;DHT22;66330;52.166;9.978;2023-04-01T10:38:52;14.20;70.10
77277;DHT22;66330;52.166;9.978;2023-04-01T11:03:46;14.60;73.10
77277;DHT22;66330;52.166;9.978;2023-04-01T11:09:02;14.70;72.90
77277;DHT22;66330;52.166;9.978;2023-04-01T11:20:28;14.80;72.10
77277;DHT22;66330;52.166;9.978;2023-04-01T11:34:05;15.30;70.90
77277;DHT22;66330;52.166;9.978;2023-04-01T11:42:38;15.40;71.30
77277;DHT22;66330;52.166;9.978;2023-04-01T11:45:43;15.50;71.60
77277;DHT22;66330;52.166;9.978;2023-04-01T11:59:31;15.90;70.40
77277;DHT22;66330;52.166;9.978;2023-04-01T12:02:19;15.90;69.80
77277;DHT22;66330;52.166;9.978;2023-04-01T12:04:58;16.10;69.60
77277;DHT22;66330;52.166;9.978;2023-04-01T12:10:20;16.30;69.00
77277;DHT22;66330;52.166;9.978;2023-04-01T12:21:27;16.30;69.10
77277;DHT22;66330;52.166;9.978;2023-04-01T12:24:04;16.30;68.90
77277;DHT22;66330;52.166;9.978;2023-04-01T12:32:15;16.60;69.30
77277;DHT22;66330;52.166;9.978;2023-04-01T12:34:54;16.80;69.10
77277;DHT22;66330;52.166;9.978;2023-04-01T12:40:17;17.10;67.70
77277;DHT22;66330;52.166;9.978;2023-04-01T12:46:19;17.50;66.40
77277;DHT22;66330;52.166;9.978;2023-04-01T12:49:13;17.80;66.20
77277;DHT22;66330;52.166;9.978;2023-04-01T12:57:18;18.60;62.90
77277;DHT22;66330;52.166;9.978;2023-04-01T12:59:55;18.90;62.80
77277;DHT22;66330;52.166;9.978;2023-04-01T13:11:02;19.00;59.80
77277;DHT22;66330;52.166;9.978;2023-04-01T13:13:36;19.10;60.00
77277;DHT22;66330;52.166;9.978;2023-04-01T13:16:07;19.10;60.30
77277;DHT22;66330;52.166;9.978;2023-04-01T13:18:43;19.60;60.80
77277;DHT22;66330;52.166;9.978;2023-04-01T13:29:43;18.40;60.60
77277;DHT22;66330;52.166;9.978;2023-04-01T13:32:39;18.10;60.80
77277;DHT22;66330;52.166;9.978;2023-04-01T13:44:00;17.00;63.20
77277;DHT22;66330;52.166;9.978;2023-04-01T13:53:09;16.20;65.10
77277;DHT22;66330;52.166;9.978;2023-04-01T13:58:38;15.70;66.70
77277;DHT22;66330;52.166;9.978;2023-04-01T14:01:15;15.40;67.40
77277;DHT22;66330;52.166;9.978;2023-04-01T14:06:31;15.10;67.60
77277;DHT22;66330;52.166;9.978;2023-04-01T14:09:17;15.00;68.50
77277;DHT22;66330;52.166;9.978;2023-04-01T14:22:42;14.70;70.00
77277;DHT22;66330;52.166;9.978;2023-04-01T14:37:15;14.10;71.50
77277;DHT22;66330;52.166;9.978;2023-04-01T14:50:44;14.40;73.50
77277;DHT22;66330;52.166;9.978;2023-04-01T14:55:54;14.20;73.60
77277;DHT22;66330;52.166;9.978;2023-04-01T14:58:22;14.10;73.20
77277;DHT22;66330;52.166;9.978;2023-04-01T15:01:00;14.20;73.80
77277;DHT22;66330;52.166;9.978;2023-04-01T15:21:06;13.50;73.80
77277;DHT22;66330;52.166;9.978;2023-04-01T15:24:04;13.60;74.60
77277;DHT22;66330;52.166;9.978;2023-04-01T15:35:26;12.60;74.60
77277;DHT22;66330;52.166;9.978;2023-04-01T15:37:56;12.50;75.40
77277;DHT22;66330;52.166;9.978;2023-04-01T15:40:42;12.60;76.00
77277;DHT22;66330;52.166;9.978;2023-04-01T15:46:09;12.20;76.20
77277;DHT22;66330;52.166;9.978;2023-04-01T15:49:12;12.10;76.40
77277;DHT22;66330;52.166;9.978;2023-04-01T15:51:54;12.10;76.60
77277;DHT22;66330;52.166;9.978;2023-04-01T15:54:53;11.80;76.50
77277;DHT22;66330;52.166;9.978;2023-04-01T16:00:30;11.70;77.20
77277;DHT22;66330;52.166;9.978;2023-04-01T16:03:20;11.60;77.00
77277;DHT22;66330;52.166;9.978;2023-04-01T16:11:15;11.80;78.10
77277;DHT22;66330;52.166;9.978;2023-04-01T16:13:53;11.00;77.30
77277;DHT22;66330;52.166;9.978;2023-04-01T16:16:47;11.70;78.30
77277;DHT22;66330;52.166;9.978;2023-04-01T16:22:20;11.30;78.20
77277;DHT22;66330;52.166;9.978;2023-04-01T16:28:54;11.10;78.20
77277;DHT22;66330;52.166;9.978;2023-04-01T16:31:09;11.10;78.10
77277;DHT22;66330;52.166;9.978;2023-04-01T16:33:55;11.00;78.20
77277;DHT22;66330;52.166;9.978;2023-04-01T16:36:27;10.90;78.30
77277;DHT22;66330;52.166;9.978;2023-04-01T16:41:47;10.90;78.80
77277;DHT22;66330;52.166;9.978;2023-04-01T16:44:23;10.90;79.20
77277;DHT22;66330;52.166;9.978;2023-04-01T16:46:59;10.80;79.00
77277;DHT22;66330;52.166;9.978;2023-04-01T16:49:51;10.70;79.00
77277;DHT22;66330;52.166;9.978;2023-04-01T16:55:34;10.70;78.80
77277;DHT22;66330;52.166;9.978;2023-04-01T16:58:02;10.60;78.90
77277;DHT22;66330;52.166;9.978;2023-04-01T17:00:37;10.50;78.90
77277;DHT22;66330;52.166;9.978;2023-04-01T17:03:11;10.40;78.90
77277;DHT22;66330;52.166;9.978;2023-04-01T17:09:13;10.40;79.60
77277;DHT22;66330;52.166;9.978;2023-04-01T17:11:47;10.30;78.40
77277;DHT22;66330;52.166;9.978;2023-04-01T17:31:07;9.90;80.90
77277;DHT22;66330;52.166;9.978;2023-04-01T17:37:01;10.30;80.50
77277;DHT22;66330;52.166;9.978;2023-04-01T17:42:30;10.20;80.00
77277;DHT22;66330;52.166;9.978;2023-04-01T17:47:41;9.70;80.90
77277;DHT22;66330;52.166;9.978;2023-04-01T17:53:12;9.70;81.10
77277;DHT22;66330;52.166;9.978;2023-04-01T17:56:04;9.70;81.60
77277;DHT22;66330;52.166;9.978;2023-04-01T17:58:42;9.80;81.80
77277;DHT22;66330;52.166;9.978;2023-04-01T18:01:34;9.60;81.30
77277;DHT22;66330;52.166;9.978;2023-04-01T18:04:10;9.60;81.70
77277;DHT22;66330;52.166;9.978;2023-04-01T18:06:52;9.50;81.20
77277;DHT22;66330;52.166;9.978;2023-04-01T18:17:42;9.30;81.30
77277;DHT22;66330;52.166;9.978;2023-04-01T18:25:47;9.10;81.00
77277;DHT22;66330;52.166;9.978;2023-04-01T18:28:43;9.10;81.70
77277;DHT22;66330;52.166;9.978;2023-04-01T18:31:26;9.00;81.70
77277;DHT22;66330;52.166;9.978;2023-04-01T18:34:06;9.00;81.60
77277;DHT22;66330;52.166;9.978;2023-04-01T18:36:47;9.00;81.70
77277;DHT22;66330;52.166;9.978;2023-04-01T18:39:16;8.90;81.80
77277;DHT22;66330;52.166;9.978;2023-04-01T18:41:52;8.90;81.40
77277;DHT22;66330;52.166;9.978;2023-04-01T18:44:41;8.80;81.80
77277;DHT22;66330;52.166;9.978;2023-04-01T18:49:48;8.70;80.70
77277;DHT22;66330;52.166;9.978;2023-04-01T18:52:25;9.20;82.30
77277;DHT22;66330;52.166;9.978;2023-04-01T19:01:12;8.60;81.80
77277;DHT22;66330;52.166;9.978;2023-04-01T19:03:48;8.60;81.70
77277;DHT22;66330;52.166;9.978;2023-04-01T19:06:26;8.50;81.80
77277;DHT22;66330;52.166;9.978;2023-04-01T19:08:53;8.50;81.90
77277;DHT22;66330;52.166;9.978;2023-04-01T19:11:41;8.50;81.90
77277;DHT22;66330;52.166;9.978;2023-04-01T19:20:22;8.40;81.70
77277;DHT22;66330;52.166;9.978;2023-04-01T19:25:51;8.10;81.10
77277;DHT22;66330;52.166;9.978;2023-04-01T19:34:07;8.20;81.60
77277;DHT22;66330;52.166;9.978;2023-04-01T19:36:48;8.20;81.30
77277;DHT22;66330;52.166;9.978;2023-04-01T19:45:22;8.20;81.70
77277;DHT22;66330;52.166;9.978;2023-04-01T19:48:14;8.10;82.00
77277;DHT22;66330;52.166;9.978;2023-04-01T19:51:31;8.10;81.80
77277;DHT22;66330;52.166;9.978;2023-04-01T20:01:44;8.00;81.60
77277;DHT22;66330;52.166;9.978;2023-04-01T20:04:26;7.90;81.20
77277;DHT22;66330;52.166;9.978;2023-04-01T20:09:54;7.90;81.70
77277;DHT22;66330;52.166;9.978;2023-04-01T20:12:49;7.80;81.30
77277;DHT22;66330;52.166;9.978;2023-04-01T20:18:01;7.80;81.80
77277;DHT22;66330;52.166;9.978;2023-04-01T20:20:29;7.70;81.10
77277;DHT22;66330;52.166;9.978;2023-04-01T20:25:49;7.70;81.80
77277;DHT22;66330;52.166;9.978;2023-04-01T20:28:21;7.70;81.80
77277;DHT22;66330;52.166;9.978;2023-04-01T20:36:54;7.60;81.70
77277;DHT22;66330;52.166;9.978;2023-04-01T20:40:06;8.20;82.00
77277;DHT22;66330;52.166;9.978;2023-04-01T20:43:14;7.40;81.20
77277;DHT22;66330;52.166;9.978;2023-04-01T20:45:52;7.30;81.60
77277;DHT22;66330;52.166;9.978;2023-04-01T20:51:31;7.20;81.70
77277;DHT22;66330;52.166;9.978;2023-04-01T21:10:41;7.00;81.50
77277;DHT22;66330;52.166;9.978;2023-04-01T21:13:25;7.10;82.20
77277;DHT22;66330;52.166;9.978;2023-04-01T21:16:32;6.90;81.30
77277;DHT22;66330;52.166;9.978;2023-04-01T21:19:15;6.90;81.90
77277;DHT22;66330;52.166;9.978;2023-04-01T21:27:16;6.80;81.80
77277;DHT22;66330;52.166;9.978;2023-04-01T21:35:37;6.90;82.20
77277;DHT22;66330;52.166;9.978;2023-04-01T21:38:09;7.40;81.90
77277;DHT22;66330;52.166;9.978;2023-04-01T21:40:46;6.80;82.10
77277;DHT22;66330;52.166;9.978;2023-04-01T21:54:35;7.00;82.10
77277;DHT22;66330;52.166;9.978;2023-04-01T22:04:55;6.60;81.40
77277;DHT22;66330;52.166;9.978;2023-04-01T22:07:30;6.60;81.40
77277;DHT22;66330;52.166;9.978;2023-04-01T22:12:52;6.70;81.30
77277;DHT22;66330;52.166;9.978;2023-04-01T22:15:45;6.50;81.40
77277;DHT22;66330;52.166;9.978;2023-04-01T22:18:31;6.40;81.50
77277;DHT22;66330;52.166;9.978;2023-04-01T22:21:13;6.40;80.70
77277;DHT22;66330;52.166;9.978;2023-04-01T22:24:03;6.30;81.70
77277;DHT22;66330;52.166;9.978;2023-04-01T22:26:37;6.40;82.00
77277;DHT22;66330;52.166;9.978;2023-04-01T22:31:49;6.40;81.70
77277;DHT22;66330;52.166;9.978;2023-04-01T22:34:19;6.40;82.10
77277;DHT22;66330;52.166;9.978;2023-04-01T22:36:54;6.40;81.40
77277;DHT22;66330;52.166;9.978;2023-04-01T22:48:18;6.30;80.90
77277;DHT22;66330;52.166;9.978;2023-04-01T22:51:03;6.20;81.40
77277;DHT22;66330;52.166;9.978;2023-04-01T22:56:23;6.10;81.60
77277;DHT22;66330;52.166;9.978;2023-04-01T22:59:00;6.10;81.70
77277;DHT22;66330;52.166;9.978;2023-04-01T23:01:59;6.10;81.90
77277;DHT22;66330;52.166;9.978;2023-04-01T23:04:39;6.10;82.10
77277;DHT22;66330;52.166;9.978;2023-04-01T23:07:29;6.10;82.20
77277;DHT22;66330;52.166;9.978;2023-04-01T23:09:58;6.10;81.40
77277;DHT22;66330;52.166;9.978;2023-04-01T23:12:26;5.90;81.50
77277;DHT22;66330;52.166;9.978;2023-04-01T23:15:01;6.10;81.70
77277;DHT22;66330;52.166;9.978;2023-04-01T23:17:51;6.10;82.30
77277;DHT22;66330;52.166;9.978;2023-04-01T23:20:49;6.10;82.20
77277;DHT22;66330;52.166;9.978;2023-04-01T23:26:20;6.00;82.00
77277;DHT22;66330;52.166;9.978;2023-04-01T23:31:38;6.00;80.80
77277;DHT22;66330;52.166;9.978;2023-04-01T23:34:21;6.00;81.40
77277;DHT22;66330;52.166;9.978;2023-04-01T23:36:50;5.90;81.40
77277;DHT22;66330;52.166;9.978;2023-04-01T23:39:26;5.90;81.50
77277;DHT22;66330;52.166;9.978;2023-04-01T23:41:56;5.90;81.10
77277;DHT22;66330;52.166;9.978;2023-04-01T23:44:24;6.00;81.60
77277;DHT22;66330;52.166;9.978;2023-04-01T23:46:51;5.90;81.10
77277;DHT22;66330;52.166;9.978;2023-04-01T23:52:31;6.20;81.90
77277;DHT22;66330;52.166;9.978;2023-04-01T23:55:19;5.80;82.30
77277;DHT22;66330;52.166;9.978;2023-04-01T23:58:21;5.70;80.80
